Accueil
METAR-TAF:

METAR-TAF

Aéroports :

Granges, Suisse

Aérodrome de Granges

latitude: 47-10-53N, longitude: 007-24-59E, altitude: 430 m

Observation

Le bulletin a été fait il y a 16 minutes, à 20:50 UTC
Vent 2 kt de nord-est
Température 13°C
Humidité 77%
Pression 1017 hPa
Visibilité 10 km ou plus
pas de nuages en-dessous de 1500 mètres et pas de cumulonimbus.

METAR: LSZG 242050Z AUTO 05002KT CAVOK 13/09 Q1017

Heure: 23:06 (21:06 UTC)

Prévision

Le bulletin a été fait il y a 6 heures et 41 minutes, à 14:25 UTC
Prévision valable du 24 à 15 UTC au 24 à 24 UTC
Vent 8 kt de ouest/sud-ouest
Visibilité 10 km ou plus
pas de nuages en-dessous de 1500 mètres et pas de cumulonimbus.
Probabilité 40% :
Temporairement
du 24 à 15 UTC au 24 à 24 UTC
Visibilité 10 km ou plus
Quelques nuages à une hauteur de 6000 ft

TAF: LSZG 241425Z 2415/2424 25008KT CAVOK PROB40 TEMPO 2415/2424 9999 FEW060

Observations et prévisions météorologiques de plus de 4000 aéroports (messages METAR et TAF).

Les stations disponibles sont représentées par des disques jaunes et rouges sur la carte.

Passer la souris dessus pour voir le nom de la station.

Cliquer dessus pour voir les observations et prévisions météorologiques.

Pour changer de carte: cliquez sur les boutons verts avec une croix noire pour zoomer, sur le bouton vert avec un tiret pour effectuer un zoom arrière, ou sur les flèches vertes pour les cartes adjacentes.


METAR-TAF: